createdAt,value
2019-06-15T00:00:22.548Z,20.95
2019-06-15T00:01:22.554Z,20.81
2019-06-15T00:02:22.543Z,20.65
2019-06-15T00:03:22.542Z,20.56
2019-06-15T00:04:22.528Z,20.36
2019-06-15T00:05:22.535Z,20.24
2019-06-15T00:06:22.531Z,20.24
2019-06-15T00:07:22.527Z,20.19
2019-06-15T00:08:22.519Z,20.04
2019-06-15T00:09:22.514Z,19.96
2019-06-15T00:10:22.512Z,19.82
2019-06-15T00:11:22.503Z,19.76
2019-06-15T00:12:22.505Z,19.76
2019-06-15T00:13:22.497Z,19.64
2019-06-15T00:14:22.510Z,19.66
2019-06-15T00:15:22.495Z,19.54
2019-06-15T00:16:22.486Z,19.45
2019-06-15T00:17:22.482Z,19.29
2019-06-15T00:18:23.470Z,19.09
2019-06-15T00:19:22.489Z,18.95
2019-06-15T00:20:22.475Z,18.93
2019-06-15T00:21:22.475Z,18.81
2019-06-15T00:22:22.459Z,18.80
2019-06-15T00:23:22.465Z,18.65
2019-06-15T00:24:34.579Z,18.53
2019-06-15T00:25:22.452Z,18.60
2019-06-15T00:26:22.446Z,18.47
2019-06-15T00:27:22.439Z,18.45
2019-06-15T00:28:22.437Z,18.47
2019-06-15T00:29:22.428Z,18.35
2019-06-15T00:30:22.426Z,18.37
2019-06-15T00:31:22.422Z,18.20
2019-06-15T00:32:22.419Z,18.22
2019-06-15T00:33:22.408Z,18.23
2019-06-15T00:34:22.408Z,18.23
2019-06-15T00:35:22.404Z,18.16
2019-06-15T00:36:22.397Z,18.22
2019-06-15T00:37:22.396Z,18.25
2019-06-15T00:38:22.389Z,18.22
2019-06-15T00:39:22.382Z,18.28
2019-06-15T00:40:22.385Z,18.34
2019-06-15T00:41:22.379Z,18.41
2019-06-15T00:42:22.369Z,18.43
2019-06-15T00:43:22.366Z,18.55
2019-06-15T00:44:22.365Z,18.58
2019-06-15T00:45:22.355Z,18.60
2019-06-15T00:46:22.354Z,18.55
2019-06-15T00:47:22.340Z,18.63
2019-06-15T00:48:22.338Z,18.56
2019-06-15T00:49:22.340Z,18.63
2019-06-15T00:50:22.344Z,18.75
2019-06-15T00:51:22.367Z,18.73
2019-06-15T00:52:22.316Z,18.80
2019-06-15T00:53:22.308Z,18.80
2019-06-15T00:54:22.301Z,18.88
2019-06-15T00:55:22.299Z,18.86
2019-06-15T00:56:22.299Z,18.90
2019-06-15T00:57:22.291Z,18.86
2019-06-15T00:58:22.284Z,18.73
2019-06-15T00:59:22.287Z,18.88
2019-06-15T01:00:22.285Z,18.73
2019-06-15T01:01:22.273Z,18.77
2019-06-15T01:02:22.272Z,18.81
2019-06-15T01:03:22.266Z,18.81
2019-06-15T01:04:22.272Z,18.80
2019-06-15T01:05:22.265Z,18.83
2019-06-15T01:06:22.257Z,18.75
2019-06-15T01:07:22.240Z,18.73
2019-06-15T01:08:22.238Z,18.77
2019-06-15T01:09:22.241Z,18.68
2019-06-15T01:10:22.232Z,18.83
2019-06-15T01:11:22.220Z,18.75
2019-06-15T01:12:22.216Z,18.84
2019-06-15T01:13:22.216Z,18.92
2019-06-15T01:14:22.209Z,18.86
2019-06-15T01:15:22.211Z,18.89
2019-06-15T01:16:22.196Z,18.90
2019-06-15T01:17:22.199Z,19.00
2019-06-15T01:18:22.199Z,19.26
2019-06-15T01:19:22.193Z,19.31
2019-06-15T01:20:22.179Z,19.24
2019-06-15T01:21:22.181Z,19.24
2019-06-15T01:22:22.171Z,19.15
2019-06-15T01:23:22.215Z,19.07
2019-06-15T01:24:22.164Z,19.00
2019-06-15T01:25:22.159Z,19.04
2019-06-15T01:26:22.155Z,19.04
2019-06-15T01:27:22.152Z,19.02
2019-06-15T01:28:22.149Z,19.02
2019-06-15T01:29:22.146Z,19.00
2019-06-15T01:30:22.138Z,18.90
2019-06-15T01:31:22.136Z,18.92
2019-06-15T01:32:22.127Z,18.92
2019-06-15T01:33:22.125Z,18.93
2019-06-15T01:34:22.114Z,18.93
2019-06-15T01:35:22.120Z,18.99
2019-06-15T01:36:22.103Z,18.95
2019-06-15T01:37:22.102Z,18.89
2019-06-15T01:38:22.102Z,19.00
2019-06-15T01:39:22.097Z,18.83
2019-06-15T01:40:22.084Z,19.12
2019-06-15T01:41:22.076Z,19.11
2019-06-15T01:42:22.072Z,19.07
2019-06-15T01:43:22.075Z,19.07
2019-06-15T01:44:22.064Z,19.15
2019-06-15T01:45:22.070Z,19.07
2019-06-15T01:46:22.056Z,19.07
2019-06-15T01:47:22.053Z,19.04
2019-06-15T01:48:22.051Z,18.99
2019-06-15T01:49:22.048Z,18.89
2019-06-15T01:50:22.065Z,18.74
2019-06-15T01:51:22.034Z,18.89
2019-06-15T01:52:22.030Z,18.90
2019-06-15T01:53:22.026Z,18.90
2019-06-15T01:54:22.025Z,18.81
2019-06-15T01:55:22.019Z,18.68
2019-06-15T01:56:22.036Z,18.73
2019-06-15T01:57:22.008Z,18.55
2019-06-15T01:58:22.000Z,18.60
2019-06-15T01:59:22.021Z,18.56
2019-06-15T02:00:21.992Z,18.56
2019-06-15T02:01:21.988Z,18.66
2019-06-15T02:02:21.995Z,18.65
2019-06-15T02:03:21.973Z,18.53
2019-06-15T02:04:21.984Z,18.63
2019-06-15T02:05:21.963Z,18.59
2019-06-15T02:06:21.962Z,18.63
2019-06-15T02:07:21.952Z,18.59
2019-06-15T02:08:21.950Z,18.56
2019-06-15T02:09:21.945Z,18.62
2019-06-15T02:10:21.938Z,18.66
2019-06-15T02:11:21.936Z,18.70
2019-06-15T02:12:21.931Z,18.58
2019-06-15T02:13:21.924Z,18.59
2019-06-15T02:14:21.921Z,18.55
2019-06-15T02:15:21.917Z,18.55
2019-06-15T02:16:21.908Z,18.53
2019-06-15T02:17:21.906Z,18.52
2019-06-15T02:18:21.907Z,18.52
2019-06-15T02:19:21.895Z,18.53
2019-06-15T02:20:21.889Z,18.55
2019-06-15T02:21:21.885Z,18.55
2019-06-15T02:22:21.886Z,18.58
2019-06-15T02:23:21.908Z,18.65
2019-06-15T02:24:21.872Z,18.59
2019-06-15T02:25:34.874Z,18.63
2019-06-15T02:26:21.862Z,18.60
2019-06-15T02:27:21.872Z,18.60
2019-06-15T02:28:21.857Z,18.55
2019-06-15T02:29:21.848Z,18.63
2019-06-15T02:30:21.845Z,18.52
2019-06-15T02:31:21.837Z,18.55
2019-06-15T02:32:21.836Z,18.55
2019-06-15T02:33:21.825Z,18.55
2019-06-15T02:34:21.824Z,18.60
2019-06-15T02:35:21.816Z,18.56
2019-06-15T02:36:21.813Z,18.52
2019-06-15T02:37:21.834Z,18.52
2019-06-15T02:38:21.795Z,18.49
2019-06-15T02:39:21.790Z,18.41
2019-06-15T02:40:21.791Z,18.40
2019-06-15T02:41:21.783Z,18.22
2019-06-15T02:42:21.779Z,18.23
2019-06-15T02:43:21.782Z,18.23
2019-06-15T02:44:21.771Z,18.20
2019-06-15T02:45:21.766Z,18.22
2019-06-15T02:46:25.975Z,18.28
2019-06-15T02:47:21.759Z,18.29
2019-06-15T02:48:21.749Z,18.31
2019-06-15T02:49:21.756Z,18.25
2019-06-15T02:50:21.743Z,18.43
2019-06-15T02:51:21.739Z,18.37
2019-06-15T02:52:21.728Z,18.35
2019-06-15T02:53:21.731Z,18.26
2019-06-15T02:54:21.718Z,18.25
2019-06-15T02:55:21.720Z,18.23
2019-06-15T02:56:21.714Z,18.26
2019-06-15T02:57:21.706Z,18.29
2019-06-15T02:58:21.700Z,18.23
2019-06-15T02:59:21.697Z,18.22
2019-06-15T03:00:21.694Z,18.33
2019-06-15T03:01:21.689Z,18.29
2019-06-15T03:02:21.679Z,18.25
2019-06-15T03:03:21.674Z,18.31
2019-06-15T03:04:21.676Z,18.23
2019-06-15T03:05:21.671Z,18.29
2019-06-15T03:06:21.662Z,18.29
2019-06-15T03:07:21.661Z,18.31
2019-06-15T03:08:21.655Z,18.31
2019-06-15T03:09:21.655Z,18.25
2019-06-15T03:10:21.640Z,18.26
2019-06-15T03:11:21.642Z,18.40
2019-06-15T03:12:21.631Z,18.40
2019-06-15T03:13:21.624Z,18.43
2019-06-15T03:14:21.626Z,18.50
2019-06-15T03:15:21.622Z,18.55
2019-06-15T03:16:21.613Z,18.45
2019-06-15T03:17:21.615Z,18.56
2019-06-15T03:18:21.600Z,18.55
2019-06-15T03:19:21.598Z,18.56
2019-06-15T03:20:21.592Z,18.60
2019-06-15T03:21:21.596Z,18.58
2019-06-15T03:22:21.584Z,18.58
2019-06-15T03:23:21.587Z,18.58
2019-06-15T03:24:42.578Z,18.62
2019-06-15T03:25:21.572Z,18.59
2019-06-15T03:26:21.572Z,18.63
2019-06-15T03:27:21.560Z,18.59
2019-06-15T03:28:21.559Z,18.65
2019-06-15T03:29:21.554Z,18.66
2019-06-15T03:30:21.544Z,18.70
2019-06-15T03:31:21.546Z,18.71
2019-06-15T03:32:21.537Z,18.68
2019-06-15T03:33:21.545Z,18.75
2019-06-15T03:34:21.528Z,18.68
2019-06-15T03:35:21.528Z,18.74
2019-06-15T03:36:21.555Z,18.75
2019-06-15T03:37:21.516Z,18.71
2019-06-15T03:38:21.515Z,18.74
2019-06-15T03:39:21.503Z,18.78
2019-06-15T03:40:21.501Z,18.74
2019-06-15T03:41:21.493Z,18.75
2019-06-15T03:42:21.490Z,18.70
2019-06-15T03:43:21.486Z,18.65
2019-06-15T03:44:21.486Z,18.63
2019-06-15T03:45:21.476Z,18.70
2019-06-15T03:46:21.477Z,18.68
2019-06-15T03:47:21.463Z,18.71
2019-06-15T03:48:21.466Z,18.66
2019-06-15T03:49:21.459Z,18.66
2019-06-15T03:50:21.455Z,18.75
2019-06-15T03:51:21.452Z,18.68
2019-06-15T03:52:21.449Z,18.66
2019-06-15T03:53:21.441Z,18.68
2019-06-15T03:54:21.439Z,18.66
2019-06-15T03:55:21.422Z,18.63
2019-06-15T03:56:22.175Z,18.71
2019-06-15T03:57:21.415Z,18.68
2019-06-15T03:58:21.415Z,18.60
2019-06-15T03:59:21.409Z,18.62
2019-06-15T04:00:21.403Z,18.56
2019-06-15T04:01:21.408Z,18.59
2019-06-15T04:02:21.395Z,18.58
2019-06-15T04:03:21.389Z,18.70
2019-06-15T04:04:21.397Z,18.68
2019-06-15T04:05:21.380Z,18.70
2019-06-15T04:06:21.378Z,18.68
2019-06-15T04:07:21.372Z,18.60
2019-06-15T04:08:21.368Z,18.56
2019-06-15T04:09:21.363Z,18.70
2019-06-15T04:10:21.359Z,18.58
2019-06-15T04:11:21.354Z,18.66
2019-06-15T04:12:21.346Z,18.58
2019-06-15T04:13:21.340Z,18.58
2019-06-15T04:14:21.337Z,18.58
2019-06-15T04:15:21.336Z,18.56
2019-06-15T04:16:21.327Z,18.59
2019-06-15T04:17:21.324Z,18.59
2019-06-15T04:18:21.324Z,18.60
2019-06-15T04:19:21.317Z,18.63
2019-06-15T04:20:21.308Z,18.59
2019-06-15T04:21:21.308Z,18.71
2019-06-15T04:22:21.301Z,18.74
2019-06-15T04:23:21.296Z,18.75
2019-06-15T04:24:21.291Z,18.71
2019-06-15T04:25:21.290Z,18.77
2019-06-15T04:26:32.844Z,18.78
2019-06-15T04:27:21.274Z,18.75
2019-06-15T04:28:21.291Z,18.83
2019-06-15T04:29:21.273Z,18.77
2019-06-15T04:30:21.263Z,18.75
2019-06-15T04:31:21.263Z,18.86
2019-06-15T04:32:21.253Z,18.71
2019-06-15T04:33:21.249Z,18.84
2019-06-15T04:34:21.242Z,18.84
2019-06-15T04:35:21.242Z,18.80
2019-06-15T04:36:21.245Z,18.88
2019-06-15T04:37:21.235Z,18.81
2019-06-15T04:38:21.237Z,18.89
2019-06-15T04:39:21.225Z,18.88
2019-06-15T04:40:21.219Z,18.89
2019-06-15T04:41:21.214Z,18.90
2019-06-15T04:42:21.207Z,18.86
2019-06-15T04:43:21.237Z,18.88
2019-06-15T04:44:21.198Z,18.99
2019-06-15T04:45:21.196Z,18.90
2019-06-15T04:46:21.188Z,19.00
2019-06-15T04:47:21.207Z,18.89
2019-06-15T04:48:21.177Z,18.92
2019-06-15T04:49:21.200Z,18.92
2019-06-15T04:50:21.178Z,18.98
2019-06-15T04:51:21.179Z,18.92
2019-06-15T04:52:21.166Z,18.92
2019-06-15T04:53:21.161Z,18.93
2019-06-15T04:54:21.187Z,18.96
2019-06-15T04:55:21.152Z,18.92
2019-06-15T04:56:21.152Z,18.92
2019-06-15T04:57:21.145Z,19.07
2019-06-15T04:58:21.148Z,19.07
2019-06-15T04:59:21.141Z,19.08
2019-06-15T05:00:21.131Z,19.09
2019-06-15T05:01:21.126Z,19.11
2019-06-15T05:02:21.123Z,19.19
2019-06-15T05:03:21.122Z,19.19
2019-06-15T05:04:21.116Z,19.19
2019-06-15T05:05:21.106Z,19.27
2019-06-15T05:06:21.105Z,19.31
2019-06-15T05:07:21.101Z,19.36
2019-06-15T05:08:21.108Z,19.30
2019-06-15T05:09:21.095Z,19.40
2019-06-15T05:10:21.093Z,19.36
2019-06-15T05:11:21.088Z,19.45
2019-06-15T05:12:21.082Z,19.49
2019-06-15T05:13:21.076Z,19.47
2019-06-15T05:14:21.068Z,19.47
2019-06-15T05:15:21.067Z,19.52
2019-06-15T05:16:21.067Z,19.52
2019-06-15T05:17:21.071Z,19.51
2019-06-15T05:18:21.075Z,19.54
2019-06-15T05:19:21.054Z,19.40
2019-06-15T05:20:21.055Z,19.51
2019-06-15T05:21:21.048Z,19.47
2019-06-15T05:22:21.048Z,19.47
2019-06-15T05:23:21.044Z,19.52
2019-06-15T05:24:21.042Z,19.58
2019-06-15T05:25:21.027Z,19.55
2019-06-15T05:26:21.027Z,19.66
2019-06-15T05:27:21.025Z,19.62
2019-06-15T05:28:21.018Z,19.64
2019-06-15T05:29:21.015Z,19.66
2019-06-15T05:30:21.014Z,19.77
2019-06-15T05:31:21.007Z,19.58
2019-06-15T05:32:21.011Z,19.56
2019-06-15T05:33:21.003Z,19.52
2019-06-15T05:34:21.025Z,19.55
2019-06-15T05:35:23.573Z,19.47
2019-06-15T05:36:20.989Z,19.47
2019-06-15T05:37:20.988Z,19.41
2019-06-15T05:38:20.977Z,19.47
2019-06-15T05:39:20.984Z,19.40
2019-06-15T05:40:20.976Z,19.47
2019-06-15T05:41:20.969Z,19.41
2019-06-15T05:42:20.972Z,19.45
2019-06-15T05:43:20.974Z,19.48
2019-06-15T05:44:20.961Z,19.44
2019-06-15T05:45:20.953Z,19.44
2019-06-15T05:46:20.948Z,19.40
2019-06-15T05:47:21.001Z,19.47
2019-06-15T05:48:20.946Z,19.47
2019-06-15T05:49:21.006Z,19.51
2019-06-15T05:50:20.943Z,19.54
2019-06-15T05:51:20.941Z,19.55
2019-06-15T05:52:21.114Z,19.56
2019-06-15T05:53:20.927Z,19.49
2019-06-15T05:54:20.926Z,19.41
2019-06-15T05:55:20.917Z,19.51
2019-06-15T05:56:20.918Z,19.55
2019-06-15T05:57:22.016Z,19.55
2019-06-15T05:58:20.907Z,19.54
2019-06-15T05:59:20.902Z,19.45
2019-06-15T06:00:20.899Z,19.41
2019-06-15T06:01:21.092Z,19.30
2019-06-15T06:02:24.520Z,19.33
2019-06-15T06:03:20.987Z,19.44
2019-06-15T06:04:20.884Z,19.47
2019-06-15T06:05:20.887Z,19.37
2019-06-15T06:06:20.889Z,19.44
2019-06-15T06:07:20.868Z,19.44
2019-06-15T06:08:20.871Z,19.40
2019-06-15T06:09:20.894Z,19.44
2019-06-15T06:10:20.870Z,19.44
2019-06-15T06:11:20.864Z,19.40
2019-06-15T06:12:20.863Z,19.29
2019-06-15T06:13:20.855Z,19.37
2019-06-15T06:14:20.851Z,19.37
2019-06-15T06:15:20.853Z,19.48
2019-06-15T06:16:20.841Z,19.41
2019-06-15T06:17:20.833Z,19.40
2019-06-15T06:18:20.844Z,19.40
2019-06-15T06:19:20.822Z,19.45
2019-06-15T06:20:20.822Z,19.48
2019-06-15T06:21:20.814Z,19.48
2019-06-15T06:22:20.819Z,19.48
2019-06-15T06:23:20.813Z,19.48
2019-06-15T06:24:20.805Z,19.55
2019-06-15T06:25:20.801Z,19.54
2019-06-15T06:26:20.806Z,19.51
2019-06-15T06:27:33.352Z,19.47
2019-06-15T06:28:20.791Z,19.52
2019-06-15T06:29:20.789Z,19.44
2019-06-15T06:30:20.779Z,19.44
2019-06-15T06:31:20.784Z,19.22
2019-06-15T06:32:20.786Z,19.39
2019-06-15T06:33:20.768Z,19.39
2019-06-15T06:34:20.768Z,19.37
2019-06-15T06:35:20.773Z,19.31
2019-06-15T06:36:20.859Z,19.33
2019-06-15T06:37:20.757Z,19.39
2019-06-15T06:38:20.757Z,19.41
2019-06-15T06:39:20.747Z,19.41
2019-06-15T06:40:20.746Z,19.40
2019-06-15T06:41:20.742Z,19.48
2019-06-15T06:42:20.739Z,19.55
2019-06-15T06:43:20.746Z,19.58
2019-06-15T06:44:20.749Z,19.45
2019-06-15T06:45:20.720Z,19.52
2019-06-15T06:46:20.717Z,19.47
2019-06-15T06:47:20.712Z,19.52
2019-06-15T06:48:20.711Z,19.51
2019-06-15T06:49:20.713Z,19.54
2019-06-15T06:50:20.708Z,19.63
2019-06-15T06:51:20.705Z,19.67
2019-06-15T06:52:20.696Z,19.64
2019-06-15T06:53:20.692Z,19.76
2019-06-15T06:54:20.693Z,19.64
2019-06-15T06:55:20.689Z,19.70
2019-06-15T06:56:20.681Z,19.67
2019-06-15T06:57:20.687Z,19.67
2019-06-15T06:58:20.726Z,19.82
2019-06-15T06:59:20.674Z,19.85
2019-06-15T07:00:20.674Z,19.86
2019-06-15T07:01:20.668Z,19.77
2019-06-15T07:02:20.669Z,19.84
2019-06-15T07:03:20.684Z,20.03
2019-06-15T07:04:20.663Z,20.09
2019-06-15T07:05:20.654Z,20.06
2019-06-15T07:06:20.664Z,20.14
2019-06-15T07:07:20.647Z,20.04
2019-06-15T07:08:20.651Z,20.09
2019-06-15T07:09:20.640Z,19.94
2019-06-15T07:10:20.650Z,20.00
2019-06-15T07:11:20.641Z,20.03
2019-06-15T07:12:20.656Z,20.03
2019-06-15T07:13:20.634Z,20.02
2019-06-15T07:14:46.231Z,19.96
2019-06-15T07:15:20.634Z,19.96
2019-06-15T07:16:20.625Z,20.03
2019-06-15T07:17:20.635Z,20.11
2019-06-15T07:18:20.619Z,20.19
2019-06-15T07:19:20.624Z,20.19
2019-06-15T07:20:20.619Z,20.14
2019-06-15T07:21:20.619Z,20.18
2019-06-15T07:22:20.612Z,20.24
2019-06-15T07:23:20.621Z,20.31
2019-06-15T07:24:20.617Z,20.26
2019-06-15T07:25:20.609Z,20.31
2019-06-15T07:26:20.610Z,20.28
2019-06-15T07:27:20.601Z,20.29
2019-06-15T07:28:20.598Z,20.29
2019-06-15T07:29:20.668Z,20.28
2019-06-15T07:30:20.600Z,20.25
2019-06-15T07:31:20.605Z,20.34
2019-06-15T07:32:20.591Z,20.28
2019-06-15T07:33:20.592Z,20.26
2019-06-15T07:34:20.591Z,20.25
2019-06-15T07:35:20.605Z,20.28
2019-06-15T07:36:20.632Z,20.14
2019-06-15T07:39:06.347Z,20.18
2019-06-15T07:39:52.785Z,20.24
2019-06-15T07:40:52.851Z,20.11
2019-06-15T07:41:52.743Z,20.14
2019-06-15T07:45:31.206Z,19.84
2019-06-15T07:46:27.688Z,19.82
2019-06-15T07:48:44.241Z,19.84
2019-06-15T07:49:17.684Z,19.81
2019-06-15T07:51:14.787Z,19.81
2019-06-15T07:53:45.859Z,19.77
2019-06-15T07:57:17.432Z,19.66
2019-06-15T07:57:57.239Z,19.51
2019-06-15T08:01:37.164Z,19.49
2019-06-15T08:02:37.190Z,19.45
2019-06-15T08:04:20.634Z,19.52
2019-06-15T08:05:26.711Z,19.37
2019-06-15T08:07:39.651Z,19.30
